sensor_id;sensor_type;location;lat;lon;timestamp;P1;durP1;ratioP1;P2;durP2;ratioP2
11998;SDS011;40817;51.520;9.954;2023-01-24T00:01:15;5.13;;;3.28;;
11998;SDS011;40817;51.520;9.954;2023-01-24T00:03:43;6.38;;;4.03;;
11998;SDS011;40817;51.520;9.954;2023-01-24T00:06:10;6.22;;;3.55;;
11998;SDS011;40817;51.520;9.954;2023-01-24T00:08:40;5.82;;;3.67;;
11998;SDS011;40817;51.520;9.954;2023-01-24T00:11:10;6.32;;;3.45;;
11998;SDS011;40817;51.520;9.954;2023-01-24T00:13:38;5.53;;;3.50;;
11998;SDS011;40817;51.520;9.954;2023-01-24T00:16:07;5.30;;;3.30;;
11998;SDS011;40817;51.520;9.954;2023-01-24T00:18:39;7.13;;;4.00;;
11998;SDS011;40817;51.520;9.954;2023-01-24T00:21:08;5.65;;;3.33;;
11998;SDS011;40817;51.520;9.954;2023-01-24T00:23:42;6.53;;;3.40;;
11998;SDS011;40817;51.520;9.954;2023-01-24T00:26:12;5.45;;;3.50;;
11998;SDS011;40817;51.520;9.954;2023-01-24T00:28:41;6.18;;;4.03;;
11998;SDS011;40817;51.520;9.954;2023-01-24T00:31:09;4.15;;;2.97;;
11998;SDS011;40817;51.520;9.954;2023-01-24T00:33:36;5.95;;;3.25;;
11998;SDS011;40817;51.520;9.954;2023-01-24T00:36:04;5.47;;;3.30;;
11998;SDS011;40817;51.520;9.954;2023-01-24T00:38:33;4.22;;;2.75;;
11998;SDS011;40817;51.520;9.954;2023-01-24T00:41:02;5.43;;;3.30;;
11998;SDS011;40817;51.520;9.954;2023-01-24T00:43:30;4.95;;;3.03;;
11998;SDS011;40817;51.520;9.954;2023-01-24T00:45:58;5.15;;;3.05;;
11998;SDS011;40817;51.520;9.954;2023-01-24T00:48:26;4.25;;;2.70;;
11998;SDS011;40817;51.520;9.954;2023-01-24T00:50:55;4.70;;;2.70;;
11998;SDS011;40817;51.520;9.954;2023-01-24T00:53:22;4.82;;;3.03;;
11998;SDS011;40817;51.520;9.954;2023-01-24T00:55:51;4.38;;;2.75;;
11998;SDS011;40817;51.520;9.954;2023-01-24T00:58:22;4.22;;;2.55;;
11998;SDS011;40817;51.520;9.954;2023-01-24T01:00:50;4.30;;;2.80;;
11998;SDS011;40817;51.520;9.954;2023-01-24T01:03:22;5.45;;;2.95;;
11998;SDS011;40817;51.520;9.954;2023-01-24T01:05:50;5.05;;;2.80;;
11998;SDS011;40817;51.520;9.954;2023-01-24T01:08:26;4.57;;;2.92;;
11998;SDS011;40817;51.520;9.954;2023-01-24T01:10:54;4.00;;;2.80;;
11998;SDS011;40817;51.520;9.954;2023-01-24T01:13:23;4.78;;;2.80;;
11998;SDS011;40817;51.520;9.954;2023-01-24T01:15:59;5.40;;;3.17;;
11998;SDS011;40817;51.520;9.954;2023-01-24T01:18:31;4.95;;;2.72;;
11998;SDS011;40817;51.520;9.954;2023-01-24T01:21:00;4.18;;;2.92;;
11998;SDS011;40817;51.520;9.954;2023-01-24T01:23:28;4.95;;;2.80;;
11998;SDS011;40817;51.520;9.954;2023-01-24T01:25:59;4.97;;;3.00;;
11998;SDS011;40817;51.520;9.954;2023-01-24T01:28:29;4.72;;;2.90;;
11998;SDS011;40817;51.520;9.954;2023-01-24T01:31:00;5.03;;;2.47;;
11998;SDS011;40817;51.520;9.954;2023-01-24T01:33:28;6.22;;;2.90;;
11998;SDS011;40817;51.520;9.954;2023-01-24T01:35:56;5.13;;;2.85;;
11998;SDS011;40817;51.520;9.954;2023-01-24T01:38:23;4.53;;;2.75;;
11998;SDS011;40817;51.520;9.954;2023-01-24T01:40:53;4.43;;;2.65;;
11998;SDS011;40817;51.520;9.954;2023-01-24T01:43:21;4.43;;;2.75;;
11998;SDS011;40817;51.520;9.954;2023-01-24T01:45:53;4.28;;;3.00;;
11998;SDS011;40817;51.520;9.954;2023-01-24T01:48:33;5.60;;;3.33;;
11998;SDS011;40817;51.520;9.954;2023-01-24T01:51:08;4.97;;;2.90;;
11998;SDS011;40817;51.520;9.954;2023-01-24T01:53:44;3.70;;;2.50;;
11998;SDS011;40817;51.520;9.954;2023-01-24T01:56:20;4.95;;;3.00;;
11998;SDS011;40817;51.520;9.954;2023-01-24T01:58:56;5.05;;;3.20;;
11998;SDS011;40817;51.520;9.954;2023-01-24T02:01:33;5.03;;;2.92;;
11998;SDS011;40817;51.520;9.954;2023-01-24T02:04:05;4.85;;;2.92;;
11998;SDS011;40817;51.520;9.954;2023-01-24T02:06:40;4.43;;;3.03;;
11998;SDS011;40817;51.520;9.954;2023-01-24T02:09:20;5.50;;;3.40;;
11998;SDS011;40817;51.520;9.954;2023-01-24T02:11:54;5.22;;;2.67;;
11998;SDS011;40817;51.520;9.954;2023-01-24T02:14:26;5.78;;;3.45;;
11998;SDS011;40817;51.520;9.954;2023-01-24T02:17:16;4.40;;;2.65;;
11998;SDS011;40817;51.520;9.954;2023-01-24T02:22:50;4.07;;;2.55;;
11998;SDS011;40817;51.520;9.954;2023-01-24T02:25:31;5.32;;;3.05;;
11998;SDS011;40817;51.520;9.954;2023-01-24T02:28:07;5.28;;;2.83;;
11998;SDS011;40817;51.520;9.954;2023-01-24T02:30:36;4.75;;;2.97;;
11998;SDS011;40817;51.520;9.954;2023-01-24T02:33:08;4.30;;;3.03;;
11998;SDS011;40817;51.520;9.954;2023-01-24T02:35:38;5.30;;;2.80;;
11998;SDS011;40817;51.520;9.954;2023-01-24T02:38:10;4.00;;;2.60;;
11998;SDS011;40817;51.520;9.954;2023-01-24T02:40:56;5.03;;;3.10;;
11998;SDS011;40817;51.520;9.954;2023-01-24T02:43:34;4.88;;;3.00;;
11998;SDS011;40817;51.520;9.954;2023-01-24T02:46:05;3.90;;;2.40;;
11998;SDS011;40817;51.520;9.954;2023-01-24T02:48:33;3.70;;;2.40;;
11998;SDS011;40817;51.520;9.954;2023-01-24T02:51:00;5.03;;;3.40;;
11998;SDS011;40817;51.520;9.954;2023-01-24T02:53:46;4.43;;;2.80;;
11998;SDS011;40817;51.520;9.954;2023-01-24T02:56:13;5.18;;;3.92;;
11998;SDS011;40817;51.520;9.954;2023-01-24T02:59:00;4.68;;;3.13;;
11998;SDS011;40817;51.520;9.954;2023-01-24T03:01:27;3.67;;;2.53;;
11998;SDS011;40817;51.520;9.954;2023-01-24T03:03:56;3.83;;;2.50;;
11998;SDS011;40817;51.520;9.954;2023-01-24T03:06:25;4.38;;;2.90;;
11998;SDS011;40817;51.520;9.954;2023-01-24T03:08:52;4.07;;;3.15;;
11998;SDS011;40817;51.520;9.954;2023-01-24T03:11:20;4.28;;;2.85;;
11998;SDS011;40817;51.520;9.954;2023-01-24T03:13:47;4.38;;;3.40;;
11998;SDS011;40817;51.520;9.954;2023-01-24T03:16:34;4.93;;;2.47;;
11998;SDS011;40817;51.520;9.954;2023-01-24T03:19:19;4.13;;;2.90;;
11998;SDS011;40817;51.520;9.954;2023-01-24T03:22:04;4.13;;;2.50;;
11998;SDS011;40817;51.520;9.954;2023-01-24T03:24:49;4.30;;;3.10;;
11998;SDS011;40817;51.520;9.954;2023-01-24T03:27:34;5.82;;;3.40;;
11998;SDS011;40817;51.520;9.954;2023-01-24T03:30:19;4.38;;;3.00;;
11998;SDS011;40817;51.520;9.954;2023-01-24T03:33:06;4.97;;;2.95;;
11998;SDS011;40817;51.520;9.954;2023-01-24T03:35:51;4.40;;;3.25;;
11998;SDS011;40817;51.520;9.954;2023-01-24T03:38:23;4.47;;;3.22;;
11998;SDS011;40817;51.520;9.954;2023-01-24T03:41:08;5.15;;;3.38;;
11998;SDS011;40817;51.520;9.954;2023-01-24T03:43:39;4.82;;;3.40;;
11998;SDS011;40817;51.520;9.954;2023-01-24T03:46:08;4.97;;;3.42;;
11998;SDS011;40817;51.520;9.954;2023-01-24T03:48:37;5.30;;;3.30;;
11998;SDS011;40817;51.520;9.954;2023-01-24T03:51:05;5.85;;;3.58;;
11998;SDS011;40817;51.520;9.954;2023-01-24T03:53:50;5.32;;;3.45;;
11998;SDS011;40817;51.520;9.954;2023-01-24T03:56:18;5.95;;;4.07;;
11998;SDS011;40817;51.520;9.954;2023-01-24T03:58:45;5.50;;;3.38;;
11998;SDS011;40817;51.520;9.954;2023-01-24T04:01:13;6.82;;;3.80;;
11998;SDS011;40817;51.520;9.954;2023-01-24T04:03:48;5.65;;;3.60;;
11998;SDS011;40817;51.520;9.954;2023-01-24T04:06:15;6.85;;;4.60;;
11998;SDS011;40817;51.520;9.954;2023-01-24T04:08:43;5.57;;;3.92;;
11998;SDS011;40817;51.520;9.954;2023-01-24T04:11:11;6.68;;;3.78;;
11998;SDS011;40817;51.520;9.954;2023-01-24T04:13:39;6.38;;;4.03;;
11998;SDS011;40817;51.520;9.954;2023-01-24T04:16:06;5.18;;;3.28;;
11998;SDS011;40817;51.520;9.954;2023-01-24T04:18:35;5.47;;;3.50;;
11998;SDS011;40817;51.520;9.954;2023-01-24T04:21:04;5.47;;;4.07;;
11998;SDS011;40817;51.520;9.954;2023-01-24T04:23:32;6.20;;;3.95;;
11998;SDS011;40817;51.520;9.954;2023-01-24T04:26:00;5.68;;;3.88;;
11998;SDS011;40817;51.520;9.954;2023-01-24T04:28:30;6.03;;;4.32;;
11998;SDS011;40817;51.520;9.954;2023-01-24T04:30:58;5.93;;;4.10;;
11998;SDS011;40817;51.520;9.954;2023-01-24T04:33:28;6.63;;;4.00;;
11998;SDS011;40817;51.520;9.954;2023-01-24T04:35:56;5.90;;;3.92;;
11998;SDS011;40817;51.520;9.954;2023-01-24T04:38:26;4.88;;;3.55;;
11998;SDS011;40817;51.520;9.954;2023-01-24T04:40:57;6.40;;;3.78;;
11998;SDS011;40817;51.520;9.954;2023-01-24T04:43:26;5.90;;;3.75;;
11998;SDS011;40817;51.520;9.954;2023-01-24T04:45:57;5.30;;;3.47;;
11998;SDS011;40817;51.520;9.954;2023-01-24T04:48:25;4.97;;;3.50;;
11998;SDS011;40817;51.520;9.954;2023-01-24T04:50:59;4.63;;;3.30;;
11998;SDS011;40817;51.520;9.954;2023-01-24T04:53:28;4.70;;;3.50;;
11998;SDS011;40817;51.520;9.954;2023-01-24T04:55:59;5.40;;;3.83;;
11998;SDS011;40817;51.520;9.954;2023-01-24T04:58:27;3.80;;;3.08;;
11998;SDS011;40817;51.520;9.954;2023-01-24T05:00:55;6.75;;;3.45;;
11998;SDS011;40817;51.520;9.954;2023-01-24T05:03:23;5.72;;;4.22;;
11998;SDS011;40817;51.520;9.954;2023-01-24T05:05:51;4.75;;;3.17;;
11998;SDS011;40817;51.520;9.954;2023-01-24T05:08:20;6.18;;;3.72;;
11998;SDS011;40817;51.520;9.954;2023-01-24T05:10:50;5.70;;;3.67;;
11998;SDS011;40817;51.520;9.954;2023-01-24T05:13:18;5.32;;;3.78;;
11998;SDS011;40817;51.520;9.954;2023-01-24T05:15:45;5.82;;;3.80;;
11998;SDS011;40817;51.520;9.954;2023-01-24T05:18:14;4.90;;;3.45;;
11998;SDS011;40817;51.520;9.954;2023-01-24T05:20:43;4.63;;;3.20;;
11998;SDS011;40817;51.520;9.954;2023-01-24T05:23:11;4.68;;;3.53;;
11998;SDS011;40817;51.520;9.954;2023-01-24T05:25:39;5.60;;;3.45;;
11998;SDS011;40817;51.520;9.954;2023-01-24T05:28:08;5.65;;;3.75;;
11998;SDS011;40817;51.520;9.954;2023-01-24T05:30:36;7.05;;;4.32;;
11998;SDS011;40817;51.520;9.954;2023-01-24T05:33:03;6.50;;;3.67;;
11998;SDS011;40817;51.520;9.954;2023-01-24T05:35:31;6.78;;;3.70;;
11998;SDS011;40817;51.520;9.954;2023-01-24T05:38:01;4.68;;;3.42;;
11998;SDS011;40817;51.520;9.954;2023-01-24T05:40:50;5.10;;;3.20;;
11998;SDS011;40817;51.520;9.954;2023-01-24T05:43:27;6.07;;;3.88;;
11998;SDS011;40817;51.520;9.954;2023-01-24T05:45:56;6.97;;;3.88;;
11998;SDS011;40817;51.520;9.954;2023-01-24T05:48:25;5.20;;;3.45;;
11998;SDS011;40817;51.520;9.954;2023-01-24T05:50:57;5.18;;;4.07;;
11998;SDS011;40817;51.520;9.954;2023-01-24T05:53:26;6.22;;;4.18;;
11998;SDS011;40817;51.520;9.954;2023-01-24T05:55:56;6.82;;;4.38;;
11998;SDS011;40817;51.520;9.954;2023-01-24T05:58:28;7.30;;;4.15;;
11998;SDS011;40817;51.520;9.954;2023-01-24T06:00:59;7.22;;;4.75;;
11998;SDS011;40817;51.520;9.954;2023-01-24T06:03:27;6.13;;;4.20;;
11998;SDS011;40817;51.520;9.954;2023-01-24T06:05:55;6.15;;;3.80;;
11998;SDS011;40817;51.520;9.954;2023-01-24T06:08:22;5.93;;;4.25;;
11998;SDS011;40817;51.520;9.954;2023-01-24T06:10:50;5.78;;;4.10;;
11998;SDS011;40817;51.520;9.954;2023-01-24T06:13:18;5.82;;;3.97;;
11998;SDS011;40817;51.520;9.954;2023-01-24T06:15:47;6.30;;;3.88;;
11998;SDS011;40817;51.520;9.954;2023-01-24T06:18:15;6.22;;;4.18;;
11998;SDS011;40817;51.520;9.954;2023-01-24T06:20:45;4.22;;;3.25;;
11998;SDS011;40817;51.520;9.954;2023-01-24T06:23:18;5.22;;;3.65;;
11998;SDS011;40817;51.520;9.954;2023-01-24T06:25:52;5.38;;;3.65;;
11998;SDS011;40817;51.520;9.954;2023-01-24T06:28:21;5.28;;;3.55;;
11998;SDS011;40817;51.520;9.954;2023-01-24T06:30:54;9.38;;;3.78;;
11998;SDS011;40817;51.520;9.954;2023-01-24T06:33:33;6.15;;;4.03;;
11998;SDS011;40817;51.520;9.954;2023-01-24T06:36:25;6.47;;;3.88;;
11998;SDS011;40817;51.520;9.954;2023-01-24T06:39:10;5.88;;;4.05;;
11998;SDS011;40817;51.520;9.954;2023-01-24T06:41:40;5.78;;;3.55;;
11998;SDS011;40817;51.520;9.954;2023-01-24T06:44:09;5.28;;;3.30;;
11998;SDS011;40817;51.520;9.954;2023-01-24T06:46:39;6.40;;;3.70;;
11998;SDS011;40817;51.520;9.954;2023-01-24T06:49:08;4.75;;;3.58;;
11998;SDS011;40817;51.520;9.954;2023-01-24T06:51:37;5.90;;;3.80;;
11998;SDS011;40817;51.520;9.954;2023-01-24T06:54:05;5.47;;;3.75;;
11998;SDS011;40817;51.520;9.954;2023-01-24T06:56:33;6.43;;;4.05;;
11998;SDS011;40817;51.520;9.954;2023-01-24T06:59:01;6.00;;;3.88;;
11998;SDS011;40817;51.520;9.954;2023-01-24T07:01:29;5.20;;;3.38;;
11998;SDS011;40817;51.520;9.954;2023-01-24T07:03:58;5.15;;;3.80;;
11998;SDS011;40817;51.520;9.954;2023-01-24T07:06:25;5.63;;;3.88;;
11998;SDS011;40817;51.520;9.954;2023-01-24T07:08:53;5.30;;;3.83;;
11998;SDS011;40817;51.520;9.954;2023-01-24T07:11:20;5.70;;;3.83;;
11998;SDS011;40817;51.520;9.954;2023-01-24T07:13:49;5.72;;;3.78;;
11998;SDS011;40817;51.520;9.954;2023-01-24T07:16:16;5.20;;;3.72;;
11998;SDS011;40817;51.520;9.954;2023-01-24T07:18:44;5.68;;;4.07;;
11998;SDS011;40817;51.520;9.954;2023-01-24T07:21:15;6.80;;;4.35;;
11998;SDS011;40817;51.520;9.954;2023-01-24T07:23:43;4.97;;;3.72;;
11998;SDS011;40817;51.520;9.954;2023-01-24T07:26:14;5.47;;;3.72;;
11998;SDS011;40817;51.520;9.954;2023-01-24T07:28:42;5.97;;;3.80;;
11998;SDS011;40817;51.520;9.954;2023-01-24T07:31:10;4.82;;;3.50;;
11998;SDS011;40817;51.520;9.954;2023-01-24T07:33:42;6.00;;;4.20;;
11998;SDS011;40817;51.520;9.954;2023-01-24T07:36:10;6.15;;;3.78;;
11998;SDS011;40817;51.520;9.954;2023-01-24T07:38:41;5.13;;;3.75;;
11998;SDS011;40817;51.520;9.954;2023-01-24T07:41:09;5.25;;;4.40;;
11998;SDS011;40817;51.520;9.954;2023-01-24T07:43:44;6.53;;;3.83;;
11998;SDS011;40817;51.520;9.954;2023-01-24T07:46:12;5.15;;;3.30;;
11998;SDS011;40817;51.520;9.954;2023-01-24T07:48:40;5.30;;;3.70;;
11998;SDS011;40817;51.520;9.954;2023-01-24T07:51:08;6.28;;;4.03;;
11998;SDS011;40817;51.520;9.954;2023-01-24T07:53:36;5.55;;;3.20;;
11998;SDS011;40817;51.520;9.954;2023-01-24T07:56:06;5.25;;;3.55;;
11998;SDS011;40817;51.520;9.954;2023-01-24T07:58:34;6.72;;;3.00;;
11998;SDS011;40817;51.520;9.954;2023-01-24T08:01:02;4.53;;;3.20;;
11998;SDS011;40817;51.520;9.954;2023-01-24T08:03:30;5.10;;;3.65;;
11998;SDS011;40817;51.520;9.954;2023-01-24T08:05:57;5.68;;;3.88;;
11998;SDS011;40817;51.520;9.954;2023-01-24T08:08:25;4.07;;;3.30;;
11998;SDS011;40817;51.520;9.954;2023-01-24T08:10:53;4.43;;;3.10;;
11998;SDS011;40817;51.520;9.954;2023-01-24T08:13:22;4.50;;;2.90;;
11998;SDS011;40817;51.520;9.954;2023-01-24T08:15:49;4.90;;;3.33;;
11998;SDS011;40817;51.520;9.954;2023-01-24T08:18:17;4.53;;;3.08;;
11998;SDS011;40817;51.520;9.954;2023-01-24T08:20:45;6.55;;;3.42;;
11998;SDS011;40817;51.520;9.954;2023-01-24T08:23:14;4.00;;;3.33;;
11998;SDS011;40817;51.520;9.954;2023-01-24T08:25:41;5.30;;;3.58;;
11998;SDS011;40817;51.520;9.954;2023-01-24T08:28:09;5.38;;;4.05;;
11998;SDS011;40817;51.520;9.954;2023-01-24T08:30:38;5.85;;;3.65;;
11998;SDS011;40817;51.520;9.954;2023-01-24T08:33:06;5.03;;;3.55;;
11998;SDS011;40817;51.520;9.954;2023-01-24T08:35:36;5.65;;;3.50;;
11998;SDS011;40817;51.520;9.954;2023-01-24T08:38:04;3.90;;;2.95;;
11998;SDS011;40817;51.520;9.954;2023-01-24T08:40:32;4.32;;;3.22;;
11998;SDS011;40817;51.520;9.954;2023-01-24T08:43:00;4.45;;;3.38;;
11998;SDS011;40817;51.520;9.954;2023-01-24T08:45:28;5.10;;;3.67;;
11998;SDS011;40817;51.520;9.954;2023-01-24T08:47:58;4.97;;;3.65;;
11998;SDS011;40817;51.520;9.954;2023-01-24T08:50:26;5.47;;;3.40;;
11998;SDS011;40817;51.520;9.954;2023-01-24T08:52:54;4.72;;;3.05;;
11998;SDS011;40817;51.520;9.954;2023-01-24T08:55:24;5.07;;;3.38;;
11998;SDS011;40817;51.520;9.954;2023-01-24T08:57:51;5.15;;;3.35;;
11998;SDS011;40817;51.520;9.954;2023-01-24T09:00:26;4.15;;;2.97;;
11998;SDS011;40817;51.520;9.954;2023-01-24T09:02:55;5.05;;;3.30;;
11998;SDS011;40817;51.520;9.954;2023-01-24T09:05:27;4.68;;;3.10;;
11998;SDS011;40817;51.520;9.954;2023-01-24T09:07:55;6.00;;;3.80;;
11998;SDS011;40817;51.520;9.954;2023-01-24T09:10:22;5.90;;;3.88;;
11998;SDS011;40817;51.520;9.954;2023-01-24T09:12:50;6.53;;;3.67;;
11998;SDS011;40817;51.520;9.954;2023-01-24T09:15:18;4.65;;;3.53;;
11998;SDS011;40817;51.520;9.954;2023-01-24T09:17:46;6.20;;;3.67;;
11998;SDS011;40817;51.520;9.954;2023-01-24T09:20:14;5.18;;;3.17;;
11998;SDS011;40817;51.520;9.954;2023-01-24T09:22:45;5.10;;;3.42;;
11998;SDS011;40817;51.520;9.954;2023-01-24T09:25:13;7.05;;;4.13;;
11998;SDS011;40817;51.520;9.954;2023-01-24T09:27:41;5.32;;;3.65;;
11998;SDS011;40817;51.520;9.954;2023-01-24T09:30:09;5.28;;;3.63;;
11998;SDS011;40817;51.520;9.954;2023-01-24T09:32:38;4.43;;;3.38;;
11998;SDS011;40817;51.520;9.954;2023-01-24T09:35:09;5.18;;;3.15;;
11998;SDS011;40817;51.520;9.954;2023-01-24T09:37:37;4.90;;;3.25;;
11998;SDS011;40817;51.520;9.954;2023-01-24T09:40:08;4.95;;;3.80;;
11998;SDS011;40817;51.520;9.954;2023-01-24T09:42:50;6.55;;;4.07;;
11998;SDS011;40817;51.520;9.954;2023-01-24T09:45:30;5.57;;;3.90;;
11998;SDS011;40817;51.520;9.954;2023-01-24T09:48:03;6.03;;;4.43;;
11998;SDS011;40817;51.520;9.954;2023-01-24T09:50:38;6.53;;;4.13;;
11998;SDS011;40817;51.520;9.954;2023-01-24T09:53:14;5.82;;;3.97;;
11998;SDS011;40817;51.520;9.954;2023-01-24T09:55:49;4.38;;;3.72;;
11998;SDS011;40817;51.520;9.954;2023-01-24T09:58:22;5.15;;;3.80;;
11998;SDS011;40817;51.520;9.954;2023-01-24T10:00:58;5.47;;;4.38;;
11998;SDS011;40817;51.520;9.954;2023-01-24T10:03:27;4.22;;;3.50;;
11998;SDS011;40817;51.520;9.954;2023-01-24T10:05:55;6.15;;;3.80;;
11998;SDS011;40817;51.520;9.954;2023-01-24T10:08:33;6.45;;;4.40;;
11998;SDS011;40817;51.520;9.954;2023-01-24T10:11:11;4.55;;;3.72;;
11998;SDS011;40817;51.520;9.954;2023-01-24T10:14:10;7.30;;;4.07;;
11998;SDS011;40817;51.520;9.954;2023-01-24T10:17:01;5.55;;;4.20;;
11998;SDS011;40817;51.520;9.954;2023-01-24T10:20:06;4.95;;;3.90;;
11998;SDS011;40817;51.520;9.954;2023-01-24T10:22:57;4.65;;;3.40;;
11998;SDS011;40817;51.520;9.954;2023-01-24T10:25:33;6.15;;;4.00;;
11998;SDS011;40817;51.520;9.954;2023-01-24T10:28:22;5.55;;;3.70;;
11998;SDS011;40817;51.520;9.954;2023-01-24T10:31:00;5.82;;;4.38;;
11998;SDS011;40817;51.520;9.954;2023-01-24T10:33:37;5.18;;;3.47;;
11998;SDS011;40817;51.520;9.954;2023-01-24T10:36:13;6.18;;;4.18;;
11998;SDS011;40817;51.520;9.954;2023-01-24T10:38:51;5.85;;;4.03;;
11998;SDS011;40817;51.520;9.954;2023-01-24T10:41:20;6.78;;;3.85;;
11998;SDS011;40817;51.520;9.954;2023-01-24T10:43:56;6.85;;;4.53;;
11998;SDS011;40817;51.520;9.954;2023-01-24T10:50:16;4.65;;;3.58;;
11998;SDS011;40817;51.520;9.954;2023-01-24T10:52:44;5.38;;;3.95;;
11998;SDS011;40817;51.520;9.954;2023-01-24T10:55:25;7.43;;;4.30;;
11998;SDS011;40817;51.520;9.954;2023-01-24T10:58:00;7.25;;;3.58;;
11998;SDS011;40817;51.520;9.954;2023-01-24T11:00:46;6.07;;;4.10;;
11998;SDS011;40817;51.520;9.954;2023-01-24T11:03:25;5.05;;;3.60;;
11998;SDS011;40817;51.520;9.954;2023-01-24T11:05:56;5.95;;;4.20;;
11998;SDS011;40817;51.520;9.954;2023-01-24T11:08:25;6.45;;;4.57;;
11998;SDS011;40817;51.520;9.954;2023-01-24T11:11:00;6.78;;;4.45;;
11998;SDS011;40817;51.520;9.954;2023-01-24T11:13:33;6.35;;;4.30;;
11998;SDS011;40817;51.520;9.954;2023-01-24T11:16:06;6.35;;;4.57;;
11998;SDS011;40817;51.520;9.954;2023-01-24T11:18:49;7.65;;;4.80;;
11998;SDS011;40817;51.520;9.954;2023-01-24T11:21:22;7.18;;;4.90;;
11998;SDS011;40817;51.520;9.954;2023-01-24T11:23:58;5.22;;;3.97;;
11998;SDS011;40817;51.520;9.954;2023-01-24T11:26:50;5.68;;;4.15;;
11998;SDS011;40817;51.520;9.954;2023-01-24T11:29:24;6.60;;;4.43;;
11998;SDS011;40817;51.520;9.954;2023-01-24T11:31:54;5.50;;;4.15;;
11998;SDS011;40817;51.520;9.954;2023-01-24T11:34:44;6.32;;;4.50;;
11998;SDS011;40817;51.520;9.954;2023-01-24T11:37:31;6.13;;;4.25;;
11998;SDS011;40817;51.520;9.954;2023-01-24T11:40:45;7.05;;;5.15;;
11998;SDS011;40817;51.520;9.954;2023-01-24T11:43:28;5.90;;;4.47;;
11998;SDS011;40817;51.520;9.954;2023-01-24T11:46:58;7.20;;;4.63;;
11998;SDS011;40817;51.520;9.954;2023-01-24T11:49:47;4.97;;;4.28;;
11998;SDS011;40817;51.520;9.954;2023-01-24T11:52:58;6.22;;;4.50;;
11998;SDS011;40817;51.520;9.954;2023-01-24T11:55:52;7.45;;;4.45;;
11998;SDS011;40817;51.520;9.954;2023-01-24T11:58:38;6.75;;;4.43;;
11998;SDS011;40817;51.520;9.954;2023-01-24T12:01:21;7.60;;;4.22;;
11998;SDS011;40817;51.520;9.954;2023-01-24T12:04:11;7.63;;;5.18;;
11998;SDS011;40817;51.520;9.954;2023-01-24T12:06:59;6.75;;;4.82;;
11998;SDS011;40817;51.520;9.954;2023-01-24T12:09:33;6.30;;;4.75;;
11998;SDS011;40817;51.520;9.954;2023-01-24T12:12:10;7.40;;;4.70;;
11998;SDS011;40817;51.520;9.954;2023-01-24T12:14:48;7.40;;;5.13;;
11998;SDS011;40817;51.520;9.954;2023-01-24T12:17:49;5.78;;;4.43;;
11998;SDS011;40817;51.520;9.954;2023-01-24T12:23:44;5.43;;;4.50;;
11998;SDS011;40817;51.520;9.954;2023-01-24T12:26:21;6.78;;;4.90;;
11998;SDS011;40817;51.520;9.954;2023-01-24T12:28:55;7.57;;;5.20;;
11998;SDS011;40817;51.520;9.954;2023-01-24T12:31:32;7.15;;;5.25;;
11998;SDS011;40817;51.520;9.954;2023-01-24T12:34:14;7.05;;;5.18;;
11998;SDS011;40817;51.520;9.954;2023-01-24T12:37:12;6.93;;;5.13;;
11998;SDS011;40817;51.520;9.954;2023-01-24T12:39:54;7.20;;;5.00;;
11998;SDS011;40817;51.520;9.954;2023-01-24T12:45:14;7.32;;;5.40;;
11998;SDS011;40817;51.520;9.954;2023-01-24T12:47:51;7.22;;;5.47;;
11998;SDS011;40817;51.520;9.954;2023-01-24T12:50:26;7.55;;;4.85;;
11998;SDS011;40817;51.520;9.954;2023-01-24T12:53:08;8.77;;;5.60;;
11998;SDS011;40817;51.520;9.954;2023-01-24T12:55:45;6.85;;;5.03;;
11998;SDS011;40817;51.520;9.954;2023-01-24T12:58:23;6.63;;;5.20;;
11998;SDS011;40817;51.520;9.954;2023-01-24T13:01:03;7.75;;;6.38;;
11998;SDS011;40817;51.520;9.954;2023-01-24T13:04:05;6.72;;;5.38;;
11998;SDS011;40817;51.520;9.954;2023-01-24T13:06:49;7.57;;;6.10;;
11998;SDS011;40817;51.520;9.954;2023-01-24T13:09:35;7.15;;;5.43;;
11998;SDS011;40817;51.520;9.954;2023-01-24T13:12:12;8.65;;;5.53;;
11998;SDS011;40817;51.520;9.954;2023-01-24T13:14:43;7.75;;;5.63;;
11998;SDS011;40817;51.520;9.954;2023-01-24T13:17:18;10.20;;;5.90;;
11998;SDS011;40817;51.520;9.954;2023-01-24T13:26:40;6.93;;;5.60;;
11998;SDS011;40817;51.520;9.954;2023-01-24T13:29:33;7.95;;;5.55;;
11998;SDS011;40817;51.520;9.954;2023-01-24T13:32:25;6.93;;;5.88;;
11998;SDS011;40817;51.520;9.954;2023-01-24T13:34:55;7.00;;;5.25;;
11998;SDS011;40817;51.520;9.954;2023-01-24T13:37:25;9.15;;;6.10;;
11998;SDS011;40817;51.520;9.954;2023-01-24T13:39:58;9.50;;;6.30;;
11998;SDS011;40817;51.520;9.954;2023-01-24T13:42:33;7.90;;;6.07;;
11998;SDS011;40817;51.520;9.954;2023-01-24T13:54:19;7.50;;;5.85;;
11998;SDS011;40817;51.520;9.954;2023-01-24T13:57:09;10.63;;;6.28;;
11998;SDS011;40817;51.520;9.954;2023-01-24T14:03:01;7.75;;;5.80;;
11998;SDS011;40817;51.520;9.954;2023-01-24T14:05:48;9.10;;;6.22;;
11998;SDS011;40817;51.520;9.954;2023-01-24T14:08:33;7.43;;;5.68;;
11998;SDS011;40817;51.520;9.954;2023-01-24T14:11:30;9.13;;;6.07;;
11998;SDS011;40817;51.520;9.954;2023-01-24T14:14:30;8.32;;;5.57;;
11998;SDS011;40817;51.520;9.954;2023-01-24T14:17:04;9.05;;;5.88;;
11998;SDS011;40817;51.520;9.954;2023-01-24T14:20:21;9.23;;;6.20;;
11998;SDS011;40817;51.520;9.954;2023-01-24T14:23:13;9.90;;;5.70;;
11998;SDS011;40817;51.520;9.954;2023-01-24T14:25:50;10.00;;;6.70;;
11998;SDS011;40817;51.520;9.954;2023-01-24T14:28:24;9.65;;;6.07;;
11998;SDS011;40817;51.520;9.954;2023-01-24T14:31:01;8.65;;;5.97;;
11998;SDS011;40817;51.520;9.954;2023-01-24T14:33:46;9.68;;;6.13;;
11998;SDS011;40817;51.520;9.954;2023-01-24T14:36:26;8.32;;;5.93;;
11998;SDS011;40817;51.520;9.954;2023-01-24T14:39:11;11.07;;;6.55;;
11998;SDS011;40817;51.520;9.954;2023-01-24T14:41:47;7.93;;;5.88;;
11998;SDS011;40817;51.520;9.954;2023-01-24T14:44:19;9.57;;;6.18;;
11998;SDS011;40817;51.520;9.954;2023-01-24T14:46:54;9.02;;;6.65;;
11998;SDS011;40817;51.520;9.954;2023-01-24T14:49:27;8.95;;;6.40;;
11998;SDS011;40817;51.520;9.954;2023-01-24T14:51:59;9.93;;;6.85;;
11998;SDS011;40817;51.520;9.954;2023-01-24T14:54:43;10.73;;;6.47;;
11998;SDS011;40817;51.520;9.954;2023-01-24T14:57:19;10.13;;;6.40;;
11998;SDS011;40817;51.520;9.954;2023-01-24T14:59:58;9.70;;;6.50;;
11998;SDS011;40817;51.520;9.954;2023-01-24T15:02:29;9.73;;;6.05;;
11998;SDS011;40817;51.520;9.954;2023-01-24T15:05:00;11.00;;;7.65;;
11998;SDS011;40817;51.520;9.954;2023-01-24T15:07:44;10.00;;;6.80;;
11998;SDS011;40817;51.520;9.954;2023-01-24T15:10:12;10.95;;;7.13;;
11998;SDS011;40817;51.520;9.954;2023-01-24T15:12:40;12.05;;;7.05;;
11998;SDS011;40817;51.520;9.954;2023-01-24T15:15:10;11.10;;;6.43;;
11998;SDS011;40817;51.520;9.954;2023-01-24T15:17:44;9.18;;;5.97;;
11998;SDS011;40817;51.520;9.954;2023-01-24T15:20:18;9.52;;;5.93;;
11998;SDS011;40817;51.520;9.954;2023-01-24T15:22:49;9.32;;;6.47;;
11998;SDS011;40817;51.520;9.954;2023-01-24T15:25:21;10.30;;;6.88;;
11998;SDS011;40817;51.520;9.954;2023-01-24T15:27:53;11.85;;;6.25;;
11998;SDS011;40817;51.520;9.954;2023-01-24T15:30:22;9.25;;;6.32;;
11998;SDS011;40817;51.520;9.954;2023-01-24T15:32:59;9.95;;;6.75;;
11998;SDS011;40817;51.520;9.954;2023-01-24T15:35:34;11.00;;;7.20;;
11998;SDS011;40817;51.520;9.954;2023-01-24T15:38:10;9.80;;;6.93;;
11998;SDS011;40817;51.520;9.954;2023-01-24T15:40:47;11.25;;;6.50;;
11998;SDS011;40817;51.520;9.954;2023-01-24T15:43:41;9.98;;;6.65;;
11998;SDS011;40817;51.520;9.954;2023-01-24T15:46:20;9.82;;;7.10;;
11998;SDS011;40817;51.520;9.954;2023-01-24T15:49:18;9.48;;;6.10;;
11998;SDS011;40817;51.520;9.954;2023-01-24T15:52:11;11.95;;;7.45;;
11998;SDS011;40817;51.520;9.954;2023-01-24T15:54:48;12.27;;;6.70;;
11998;SDS011;40817;51.520;9.954;2023-01-24T15:57:24;12.90;;;7.43;;
11998;SDS011;40817;51.520;9.954;2023-01-24T15:59:56;10.85;;;6.93;;
11998;SDS011;40817;51.520;9.954;2023-01-24T16:02:29;11.02;;;7.43;;